National Geographic Sea Bird — WAK8004 — position and weather

sailwx.info

Track history (hours):
 
Tides and Currents Weather Stations Pressure Air Temp Water Temp Dewpoint Dewpoint Depression Visibility Wind Speed Wind Dir Waves Ship Positions

National Geographic Sea Bird

Owner: Lindblad Expeditions, Inc., SEATTLE, WA. More information available from US FCC via Universal Licensing System and Coast Guard Vessel Documentation Center.

Last reported at 2018-Apr-26 19:00 UTC. Time now 2018-Apr-26 19:15 UTC.
Position N 34°05' W 120°44'.

Length 50 m; draft 2.7 m.

Type: Passenger vessel. MMSI: 366892350.

Date/timePositionNaut miles runAvg speedWind from/ knotsBaromVisibWave heightAir tempDewpointWater temp
2018-Apr-26 19:00N 34°05' W 120°44'510.1
2018-Apr-26 18:30N 34°01' W 120°41'510.3
2018-Apr-26 18:00N 33°57' W 120°37'510.4
2018-Apr-26 17:30N 33°54' W 120°31'510.2
2018-Apr-26 16:58N 33°52' W 120°26'4 9.3
2018-Apr-26 16:30N 33°50' W 120°21'5 9.8
2018-Apr-26 16:00N 33°47' W 120°16'5 9.7
2018-Apr-26 15:28N 33°44' W 120°10'5 9.8
2018-Apr-26 15:00N 33°42' W 120°06'510.0
2018-Apr-26 14:30N 33°40' W 120°01'510.3
2018-Apr-26 14:00N 33°37' W 119°55'5 9.9
2018-Apr-26 13:28N 33°35' W 119°50'5 9.9
2018-Apr-26 13:00N 33°33' W 119°45'5 9.8
2018-Apr-26 12:30N 33°31' W 119°39'5 9.6
2018-Apr-26 12:00N 33°29' W 119°34'5 9.9
2018-Apr-26 11:30N 33°27' W 119°28'510.0
2018-Apr-26 11:00N 33°25' W 119°23'510.0
2018-Apr-26 10:30N 33°23' W 119°17'5 9.9
2018-Apr-26 10:00N 33°20' W 119°12'5 9.9
2018-Apr-26 09:30N 33°18' W 119°07'510.0
2018-Apr-26 09:00N 33°16' W 119°02'4710.0
2018-Apr-26 04:16N 32°57' W 118°10'1710.2
2018-Apr-26 02:33N 32°50' W 117°51'0 9.9
2018-Apr-26 02:30N 32°50' W 117°50'610.2
2018-Apr-26 01:56N 32°47' W 117°44'410.2
2018-Apr-26 01:30N 32°45' W 117°39'510.0
2018-Apr-26 01:00N 32°44' W 117°34'5 9.8
2018-Apr-26 00:30N 32°41' W 117°29'  
Track history (hours):
 
Tides and Currents Weather Stations Pressure Air Temp Water Temp Dewpoint Dewpoint Depression Visibility Wind Speed Wind Dir Waves Ship Positions

National Geographic Sea Bird

Owner: Lindblad Expeditions, Inc., SEATTLE, WA. More information available from US FCC via Universal Licensing System and Coast Guard Vessel Documentation Center.

Last reported at 2018-Apr-26 19:00 UTC. Time now 2018-Apr-26 19:15 UTC.
Position N 34°05' W 120°44'.

Length 50 m; draft 2.7 m.

Type: Passenger vessel. MMSI: 366892350.

Date/timePositionNaut miles runAvg speedWind from/ knotsBaromVisibWave heightAir tempDewpointWater temp
2018-Apr-26 19:00N 34°05' W 120°44'510.1
2018-Apr-26 18:30N 34°01' W 120°41'510.3
2018-Apr-26 18:00N 33°57' W 120°37'510.4
2018-Apr-26 17:30N 33°54' W 120°31'510.2
2018-Apr-26 16:58N 33°52' W 120°26'4 9.3
2018-Apr-26 16:30N 33°50' W 120°21'5 9.8
2018-Apr-26 16:00N 33°47' W 120°16'5 9.7
2018-Apr-26 15:28N 33°44' W 120°10'5 9.8
2018-Apr-26 15:00N 33°42' W 120°06'510.0
2018-Apr-26 14:30N 33°40' W 120°01'510.3
2018-Apr-26 14:00N 33°37' W 119°55'5 9.9
2018-Apr-26 13:28N 33°35' W 119°50'5 9.9
2018-Apr-26 13:00N 33°33' W 119°45'5 9.8
2018-Apr-26 12:30N 33°31' W 119°39'5 9.6
2018-Apr-26 12:00N 33°29' W 119°34'5 9.9
2018-Apr-26 11:30N 33°27' W 119°28'510.0
2018-Apr-26 11:00N 33°25' W 119°23'510.0
2018-Apr-26 10:30N 33°23' W 119°17'5 9.9
2018-Apr-26 10:00N 33°20' W 119°12'5 9.9
2018-Apr-26 09:30N 33°18' W 119°07'510.0
2018-Apr-26 09:00N 33°16' W 119°02'4710.0
2018-Apr-26 04:16N 32°57' W 118°10'1710.2
2018-Apr-26 02:33N 32°50' W 117°51'0 9.9
2018-Apr-26 02:30N 32°50' W 117°50'610.2
2018-Apr-26 01:56N 32°47' W 117°44'410.2
2018-Apr-26 01:30N 32°45' W 117°39'510.0
2018-Apr-26 01:00N 32°44' W 117°34'5 9.8
2018-Apr-26 00:30N 32°41' W 117°29'  

Dump ship's entire track history